sensor_id;sensor_type;location;lat;lon;timestamp;P1;durP1;ratioP1;P2;durP2;ratioP2
55728;SDS011;41633;39.720;2.910;2022-10-22T00:01:16;44.05;;;12.75;;
55728;SDS011;41633;39.720;2.910;2022-10-22T00:03:42;42.97;;;13.20;;
55728;SDS011;41633;39.720;2.910;2022-10-22T00:08:34;38.60;;;12.40;;
55728;SDS011;41633;39.720;2.910;2022-10-22T00:13:26;39.03;;;12.52;;
55728;SDS011;41633;39.720;2.910;2022-10-22T00:18:18;38.85;;;12.68;;
55728;SDS011;41633;39.720;2.910;2022-10-22T00:23:10;30.73;;;13.68;;
55728;SDS011;41633;39.720;2.910;2022-10-22T00:28:02;42.85;;;14.10;;
55728;SDS011;41633;39.720;2.910;2022-10-22T00:30:28;34.53;;;12.48;;
55728;SDS011;41633;39.720;2.910;2022-10-22T00:35:20;39.88;;;13.45;;
55728;SDS011;41633;39.720;2.910;2022-10-22T00:40:12;38.67;;;13.65;;
55728;SDS011;41633;39.720;2.910;2022-10-22T00:42:39;41.88;;;15.55;;
55728;SDS011;41633;39.720;2.910;2022-10-22T00:47:40;39.00;;;14.25;;
55728;SDS011;41633;39.720;2.910;2022-10-22T00:50:12;38.10;;;14.75;;
55728;SDS011;41633;39.720;2.910;2022-10-22T00:52:39;37.40;;;14.27;;
55728;SDS011;41633;39.720;2.910;2022-10-22T00:55:05;38.83;;;14.20;;
55728;SDS011;41633;39.720;2.910;2022-10-22T00:57:32;39.95;;;14.65;;
55728;SDS011;41633;39.720;2.910;2022-10-22T00:59:59;35.42;;;12.38;;
55728;SDS011;41633;39.720;2.910;2022-10-22T01:02:25;37.60;;;12.43;;
55728;SDS011;41633;39.720;2.910;2022-10-22T01:04:52;32.35;;;12.13;;
55728;SDS011;41633;39.720;2.910;2022-10-22T01:17:18;39.58;;;13.77;;
55728;SDS011;41633;39.720;2.910;2022-10-22T01:22:33;33.10;;;11.90;;
55728;SDS011;41633;39.720;2.910;2022-10-22T01:25:04;38.33;;;13.77;;
55728;SDS011;41633;39.720;2.910;2022-10-22T01:32:25;34.50;;;13.13;;
55728;SDS011;41633;39.720;2.910;2022-10-22T01:34:53;40.95;;;13.57;;
55728;SDS011;41633;39.720;2.910;2022-10-22T01:37:20;37.53;;;14.10;;
55728;SDS011;41633;39.720;2.910;2022-10-22T01:39:48;36.83;;;13.07;;
55728;SDS011;41633;39.720;2.910;2022-10-22T01:42:15;40.00;;;12.73;;
55728;SDS011;41633;39.720;2.910;2022-10-22T01:44:41;37.42;;;13.05;;
55728;SDS011;41633;39.720;2.910;2022-10-22T01:50:17;36.25;;;13.23;;
55728;SDS011;41633;39.720;2.910;2022-10-22T01:57:52;33.90;;;12.23;;
55728;SDS011;41633;39.720;2.910;2022-10-22T02:00:21;34.00;;;12.40;;
55728;SDS011;41633;39.720;2.910;2022-10-22T02:05:24;38.63;;;13.23;;
55728;SDS011;41633;39.720;2.910;2022-10-22T02:07:56;41.45;;;12.57;;
55728;SDS011;41633;39.720;2.910;2022-10-22T02:10:24;36.95;;;12.55;;
55728;SDS011;41633;39.720;2.910;2022-10-22T02:12:51;33.33;;;12.27;;
55728;SDS011;41633;39.720;2.910;2022-10-22T02:15:18;39.70;;;12.82;;
55728;SDS011;41633;39.720;2.910;2022-10-22T02:17:45;35.20;;;12.07;;
55728;SDS011;41633;39.720;2.910;2022-10-22T02:20:18;33.38;;;12.15;;
55728;SDS011;41633;39.720;2.910;2022-10-22T02:22:47;38.65;;;12.98;;
55728;SDS011;41633;39.720;2.910;2022-10-22T02:25:13;39.13;;;12.68;;
55728;SDS011;41633;39.720;2.910;2022-10-22T02:27:44;35.33;;;13.13;;
55728;SDS011;41633;39.720;2.910;2022-10-22T02:30:12;32.47;;;12.23;;
55728;SDS011;41633;39.720;2.910;2022-10-22T02:35:24;32.42;;;12.00;;
55728;SDS011;41633;39.720;2.910;2022-10-22T02:37:52;40.83;;;13.52;;
55728;SDS011;41633;39.720;2.910;2022-10-22T02:40:19;32.72;;;11.48;;
55728;SDS011;41633;39.720;2.910;2022-10-22T02:42:46;36.20;;;12.73;;
55728;SDS011;41633;39.720;2.910;2022-10-22T02:45:13;34.97;;;12.32;;
55728;SDS011;41633;39.720;2.910;2022-10-22T02:47:40;38.38;;;12.50;;
55728;SDS011;41633;39.720;2.910;2022-10-22T02:50:06;49.30;;;13.95;;
55728;SDS011;41633;39.720;2.910;2022-10-22T02:52:32;37.00;;;12.55;;
55728;SDS011;41633;39.720;2.910;2022-10-22T02:54:58;38.35;;;12.57;;
55728;SDS011;41633;39.720;2.910;2022-10-22T02:59:50;39.15;;;12.35;;
55728;SDS011;41633;39.720;2.910;2022-10-22T03:02:16;35.63;;;11.88;;
55728;SDS011;41633;39.720;2.910;2022-10-22T03:04:43;34.22;;;12.48;;
55728;SDS011;41633;39.720;2.910;2022-10-22T03:09:35;42.92;;;12.75;;
55728;SDS011;41633;39.720;2.910;2022-10-22T03:14:27;36.38;;;13.30;;
55728;SDS011;41633;39.720;2.910;2022-10-22T03:19:19;40.03;;;13.82;;
55728;SDS011;41633;39.720;2.910;2022-10-22T03:24:12;41.15;;;13.60;;
55728;SDS011;41633;39.720;2.910;2022-10-22T03:26:38;39.85;;;13.63;;
55728;SDS011;41633;39.720;2.910;2022-10-22T03:29:05;41.70;;;12.98;;
55728;SDS011;41633;39.720;2.910;2022-10-22T03:31:32;45.00;;;15.18;;
55728;SDS011;41633;39.720;2.910;2022-10-22T03:33:58;47.38;;;15.43;;
55728;SDS011;41633;39.720;2.910;2022-10-22T03:38:50;43.38;;;14.40;;
55728;SDS011;41633;39.720;2.910;2022-10-22T03:41:16;31.73;;;14.10;;
55728;SDS011;41633;39.720;2.910;2022-10-22T03:43:42;35.47;;;13.65;;
55728;SDS011;41633;39.720;2.910;2022-10-22T03:46:13;43.50;;;14.48;;
55728;SDS011;41633;39.720;2.910;2022-10-22T03:51:05;44.80;;;14.32;;
55728;SDS011;41633;39.720;2.910;2022-10-22T03:55:57;37.38;;;14.20;;
55728;SDS011;41633;39.720;2.910;2022-10-22T04:00:49;42.83;;;14.98;;
55728;SDS011;41633;39.720;2.910;2022-10-22T04:05:41;40.88;;;13.88;;
55728;SDS011;41633;39.720;2.910;2022-10-22T04:10:33;38.97;;;14.43;;
55728;SDS011;41633;39.720;2.910;2022-10-22T04:13:00;37.42;;;13.15;;
55728;SDS011;41633;39.720;2.910;2022-10-22T04:15:26;38.78;;;15.02;;
55728;SDS011;41633;39.720;2.910;2022-10-22T04:17:53;34.15;;;13.10;;
55728;SDS011;41633;39.720;2.910;2022-10-22T04:20:19;49.33;;;14.52;;
55728;SDS011;41633;39.720;2.910;2022-10-22T04:25:11;41.55;;;14.00;;
55728;SDS011;41633;39.720;2.910;2022-10-22T04:30:03;46.17;;;13.85;;
55728;SDS011;41633;39.720;2.910;2022-10-22T04:32:30;37.60;;;13.32;;
55728;SDS011;41633;39.720;2.910;2022-10-22T04:37:22;41.88;;;13.07;;
55728;SDS011;41633;39.720;2.910;2022-10-22T04:42:14;38.88;;;14.02;;
55728;SDS011;41633;39.720;2.910;2022-10-22T04:47:06;31.92;;;13.20;;
55728;SDS011;41633;39.720;2.910;2022-10-22T04:49:33;36.08;;;13.25;;
55728;SDS011;41633;39.720;2.910;2022-10-22T04:54:25;37.75;;;14.43;;
55728;SDS011;41633;39.720;2.910;2022-10-22T04:59:17;35.75;;;14.35;;
55728;SDS011;41633;39.720;2.910;2022-10-22T05:04:13;40.60;;;15.15;;
55728;SDS011;41633;39.720;2.910;2022-10-22T05:06:39;36.60;;;14.50;;
55728;SDS011;41633;39.720;2.910;2022-10-22T05:09:07;38.13;;;13.45;;
55728;SDS011;41633;39.720;2.910;2022-10-22T05:11:34;38.72;;;14.25;;
55728;SDS011;41633;39.720;2.910;2022-10-22T05:14:01;43.53;;;15.32;;
55728;SDS011;41633;39.720;2.910;2022-10-22T05:16:28;40.25;;;13.77;;
55728;SDS011;41633;39.720;2.910;2022-10-22T05:18:57;41.88;;;13.73;;
55728;SDS011;41633;39.720;2.910;2022-10-22T05:21:24;40.70;;;14.25;;
55728;SDS011;41633;39.720;2.910;2022-10-22T05:23:50;36.38;;;13.77;;
55728;SDS011;41633;39.720;2.910;2022-10-22T05:26:19;39.67;;;14.25;;
55728;SDS011;41633;39.720;2.910;2022-10-22T05:28:46;42.70;;;13.45;;
55728;SDS011;41633;39.720;2.910;2022-10-22T05:31:12;36.10;;;13.38;;
55728;SDS011;41633;39.720;2.910;2022-10-22T05:33:39;35.72;;;13.60;;
55728;SDS011;41633;39.720;2.910;2022-10-22T05:36:05;36.67;;;14.18;;
55728;SDS011;41633;39.720;2.910;2022-10-22T05:38:32;41.33;;;14.68;;
55728;SDS011;41633;39.720;2.910;2022-10-22T05:41:09;41.72;;;14.63;;
55728;SDS011;41633;39.720;2.910;2022-10-22T05:43:35;36.40;;;13.82;;
55728;SDS011;41633;39.720;2.910;2022-10-22T05:46:06;41.90;;;13.85;;
55728;SDS011;41633;39.720;2.910;2022-10-22T05:48:32;34.50;;;13.63;;
55728;SDS011;41633;39.720;2.910;2022-10-22T05:53:28;31.70;;;14.00;;
55728;SDS011;41633;39.720;2.910;2022-10-22T05:58:20;35.20;;;12.57;;
55728;SDS011;41633;39.720;2.910;2022-10-22T06:03:12;38.45;;;12.82;;
55728;SDS011;41633;39.720;2.910;2022-10-22T06:05:38;33.40;;;12.10;;
55728;SDS011;41633;39.720;2.910;2022-10-22T06:08:04;42.22;;;13.57;;
55728;SDS011;41633;39.720;2.910;2022-10-22T06:12:57;32.60;;;12.80;;
55728;SDS011;41633;39.720;2.910;2022-10-22T06:15:25;36.92;;;13.05;;
55728;SDS011;41633;39.720;2.910;2022-10-22T06:17:51;37.75;;;13.07;;
55728;SDS011;41633;39.720;2.910;2022-10-22T06:22:43;32.90;;;12.27;;
55728;SDS011;41633;39.720;2.910;2022-10-22T06:25:10;33.00;;;13.55;;
55728;SDS011;41633;39.720;2.910;2022-10-22T06:27:36;38.00;;;13.20;;
55728;SDS011;41633;39.720;2.910;2022-10-22T06:30:02;30.83;;;12.27;;
55728;SDS011;41633;39.720;2.910;2022-10-22T06:32:29;40.85;;;14.30;;
55728;SDS011;41633;39.720;2.910;2022-10-22T06:34:55;27.67;;;11.75;;
55728;SDS011;41633;39.720;2.910;2022-10-22T06:39:47;37.25;;;14.25;;
55728;SDS011;41633;39.720;2.910;2022-10-22T06:44:39;35.90;;;13.60;;
55728;SDS011;41633;39.720;2.910;2022-10-22T06:49:31;33.85;;;13.75;;
55728;SDS011;41633;39.720;2.910;2022-10-22T06:54:23;39.00;;;17.75;;
55728;SDS011;41633;39.720;2.910;2022-10-22T06:59:15;46.25;;;20.65;;
55728;SDS011;41633;39.720;2.910;2022-10-22T07:04:08;49.15;;;23.48;;
55728;SDS011;41633;39.720;2.910;2022-10-22T07:06:35;51.63;;;24.90;;
55728;SDS011;41633;39.720;2.910;2022-10-22T07:09:01;46.17;;;22.58;;
55728;SDS011;41633;39.720;2.910;2022-10-22T07:13:54;44.70;;;20.60;;
55728;SDS011;41633;39.720;2.910;2022-10-22T07:16:20;40.95;;;18.75;;
55728;SDS011;41633;39.720;2.910;2022-10-22T07:18:46;40.88;;;17.88;;
55728;SDS011;41633;39.720;2.910;2022-10-22T07:21:13;40.00;;;16.52;;
55728;SDS011;41633;39.720;2.910;2022-10-22T07:23:40;37.13;;;16.40;;
55728;SDS011;41633;39.720;2.910;2022-10-22T07:28:33;39.60;;;18.37;;
55728;SDS011;41633;39.720;2.910;2022-10-22T07:30:59;32.72;;;17.17;;
55728;SDS011;41633;39.720;2.910;2022-10-22T07:33:25;38.47;;;17.20;;
55728;SDS011;41633;39.720;2.910;2022-10-22T07:38:17;37.15;;;16.45;;
55728;SDS011;41633;39.720;2.910;2022-10-22T07:43:09;45.35;;;19.42;;
55728;SDS011;41633;39.720;2.910;2022-10-22T07:45:35;44.35;;;19.98;;
55728;SDS011;41633;39.720;2.910;2022-10-22T07:48:02;49.25;;;17.90;;
55728;SDS011;41633;39.720;2.910;2022-10-22T07:52:54;36.70;;;14.85;;
55728;SDS011;41633;39.720;2.910;2022-10-22T07:55:20;34.65;;;14.32;;
55728;SDS011;41633;39.720;2.910;2022-10-22T08:00:12;31.02;;;13.45;;
55728;SDS011;41633;39.720;2.910;2022-10-22T08:02:38;37.22;;;14.88;;
55728;SDS011;41633;39.720;2.910;2022-10-22T08:07:30;35.28;;;16.55;;
55728;SDS011;41633;39.720;2.910;2022-10-22T08:12:22;39.63;;;17.27;;
55728;SDS011;41633;39.720;2.910;2022-10-22T08:17:14;41.50;;;18.17;;
55728;SDS011;41633;39.720;2.910;2022-10-22T08:19:40;36.13;;;17.52;;
55728;SDS011;41633;39.720;2.910;2022-10-22T08:24:32;37.28;;;17.35;;
55728;SDS011;41633;39.720;2.910;2022-10-22T08:26:59;36.40;;;17.23;;
55728;SDS011;41633;39.720;2.910;2022-10-22T08:31:51;37.63;;;15.95;;
55728;SDS011;41633;39.720;2.910;2022-10-22T08:34:18;35.92;;;16.13;;
55728;SDS011;41633;39.720;2.910;2022-10-22T08:36:44;36.50;;;15.43;;
55728;SDS011;41633;39.720;2.910;2022-10-22T08:39:10;36.35;;;14.82;;
55728;SDS011;41633;39.720;2.910;2022-10-22T08:44:37;38.97;;;17.33;;
55728;SDS011;41633;39.720;2.910;2022-10-22T08:47:12;34.95;;;17.80;;
55728;SDS011;41633;39.720;2.910;2022-10-22T08:49:40;39.67;;;17.23;;
55728;SDS011;41633;39.720;2.910;2022-10-22T08:52:09;42.20;;;15.13;;
55728;SDS011;41633;39.720;2.910;2022-10-22T08:54:51;34.83;;;14.38;;
55728;SDS011;41633;39.720;2.910;2022-10-22T09:00:00;37.17;;;17.33;;
55728;SDS011;41633;39.720;2.910;2022-10-22T09:07:42;34.17;;;11.57;;
55728;SDS011;41633;39.720;2.910;2022-10-22T09:10:14;29.52;;;11.23;;
55728;SDS011;41633;39.720;2.910;2022-10-22T09:12:40;35.75;;;11.45;;
55728;SDS011;41633;39.720;2.910;2022-10-22T09:15:10;28.70;;;10.55;;
55728;SDS011;41633;39.720;2.910;2022-10-22T09:17:40;35.70;;;10.85;;
55728;SDS011;41633;39.720;2.910;2022-10-22T09:20:10;29.80;;;11.48;;
55728;SDS011;41633;39.720;2.910;2022-10-22T09:22:51;31.10;;;10.45;;
55728;SDS011;41633;39.720;2.910;2022-10-22T09:25:23;36.42;;;12.52;;
55728;SDS011;41633;39.720;2.910;2022-10-22T09:27:50;35.05;;;12.15;;
55728;SDS011;41633;39.720;2.910;2022-10-22T09:30:22;33.17;;;12.35;;
55728;SDS011;41633;39.720;2.910;2022-10-22T09:33:05;35.78;;;12.18;;
55728;SDS011;41633;39.720;2.910;2022-10-22T09:35:46;36.38;;;11.95;;
55728;SDS011;41633;39.720;2.910;2022-10-22T09:38:13;40.47;;;11.82;;
55728;SDS011;41633;39.720;2.910;2022-10-22T09:40:43;45.60;;;12.73;;
55728;SDS011;41633;39.720;2.910;2022-10-22T09:43:11;26.25;;;10.00;;
55728;SDS011;41633;39.720;2.910;2022-10-22T09:45:37;29.83;;;10.00;;
55728;SDS011;41633;39.720;2.910;2022-10-22T09:48:11;36.22;;;10.50;;
55728;SDS011;41633;39.720;2.910;2022-10-22T09:50:46;29.83;;;9.98;;
55728;SDS011;41633;39.720;2.910;2022-10-22T09:55:42;31.73;;;9.40;;
55728;SDS011;41633;39.720;2.910;2022-10-22T09:58:09;34.65;;;9.52;;
55728;SDS011;41633;39.720;2.910;2022-10-22T10:00:44;30.52;;;8.75;;
55728;SDS011;41633;39.720;2.910;2022-10-22T10:03:17;28.85;;;8.07;;
55728;SDS011;41633;39.720;2.910;2022-10-22T10:05:48;27.55;;;8.38;;
55728;SDS011;41633;39.720;2.910;2022-10-22T10:08:16;31.17;;;7.57;;
55728;SDS011;41633;39.720;2.910;2022-10-22T10:16:09;30.83;;;7.80;;
55728;SDS011;41633;39.720;2.910;2022-10-22T10:29:12;30.25;;;8.27;;
55728;SDS011;41633;39.720;2.910;2022-10-22T10:32:02;32.33;;;8.00;;
55728;SDS011;41633;39.720;2.910;2022-10-22T10:37:25;35.95;;;7.65;;
55728;SDS011;41633;39.720;2.910;2022-10-22T10:50:33;33.20;;;7.80;;
55728;SDS011;41633;39.720;2.910;2022-10-22T10:58:05;28.98;;;6.85;;
55728;SDS011;41633;39.720;2.910;2022-10-22T11:00:38;33.10;;;7.43;;
55728;SDS011;41633;39.720;2.910;2022-10-22T11:03:15;31.55;;;7.65;;
55728;SDS011;41633;39.720;2.910;2022-10-22T11:08:39;40.33;;;8.00;;
55728;SDS011;41633;39.720;2.910;2022-10-22T11:13:47;34.78;;;10.80;;
55728;SDS011;41633;39.720;2.910;2022-10-22T11:18:54;35.53;;;9.50;;
55728;SDS011;41633;39.720;2.910;2022-10-22T11:21:26;35.08;;;11.00;;
55728;SDS011;41633;39.720;2.910;2022-10-22T11:23:56;44.85;;;17.38;;
55728;SDS011;41633;39.720;2.910;2022-10-22T11:29:02;29.45;;;8.25;;
55728;SDS011;41633;39.720;2.910;2022-10-22T11:31:29;34.75;;;8.00;;
55728;SDS011;41633;39.720;2.910;2022-10-22T11:34:09;33.75;;;7.93;;
55728;SDS011;41633;39.720;2.910;2022-10-22T11:36:38;30.98;;;7.95;;
55728;SDS011;41633;39.720;2.910;2022-10-22T11:39:13;37.78;;;7.95;;
55728;SDS011;41633;39.720;2.910;2022-10-22T11:44:20;28.55;;;7.03;;
55728;SDS011;41633;39.720;2.910;2022-10-22T11:46:55;29.20;;;7.05;;
55728;SDS011;41633;39.720;2.910;2022-10-22T11:49:26;31.25;;;7.10;;
55728;SDS011;41633;39.720;2.910;2022-10-22T11:52:04;40.40;;;7.82;;
55728;SDS011;41633;39.720;2.910;2022-10-22T11:57:17;30.83;;;7.75;;
55728;SDS011;41633;39.720;2.910;2022-10-22T12:02:47;32.35;;;7.45;;
55728;SDS011;41633;39.720;2.910;2022-10-22T12:07:55;32.22;;;7.65;;
55728;SDS011;41633;39.720;2.910;2022-10-22T12:10:33;32.08;;;7.22;;
55728;SDS011;41633;39.720;2.910;2022-10-22T12:15:50;24.92;;;7.28;;
55728;SDS011;41633;39.720;2.910;2022-10-22T12:18:17;26.80;;;6.63;;
55728;SDS011;41633;39.720;2.910;2022-10-22T12:20:48;29.35;;;7.38;;
55728;SDS011;41633;39.720;2.910;2022-10-22T12:23:14;32.08;;;7.07;;
55728;SDS011;41633;39.720;2.910;2022-10-22T12:25:40;36.63;;;7.80;;
55728;SDS011;41633;39.720;2.910;2022-10-22T12:28:09;27.63;;;7.03;;
55728;SDS011;41633;39.720;2.910;2022-10-22T12:30:36;37.28;;;8.07;;
55728;SDS011;41633;39.720;2.910;2022-10-22T12:33:06;30.00;;;6.80;;
55728;SDS011;41633;39.720;2.910;2022-10-22T12:35:34;29.48;;;7.22;;
55728;SDS011;41633;39.720;2.910;2022-10-22T12:38:14;32.78;;;7.55;;
55728;SDS011;41633;39.720;2.910;2022-10-22T12:40:40;27.80;;;6.82;;
55728;SDS011;41633;39.720;2.910;2022-10-22T12:43:10;36.40;;;7.90;;
55728;SDS011;41633;39.720;2.910;2022-10-22T12:45:37;34.95;;;7.55;;
55728;SDS011;41633;39.720;2.910;2022-10-22T12:48:13;31.65;;;7.45;;
55728;SDS011;41633;39.720;2.910;2022-10-22T12:50:41;29.73;;;7.25;;
55728;SDS011;41633;39.720;2.910;2022-10-22T12:53:18;35.60;;;6.57;;
55728;SDS011;41633;39.720;2.910;2022-10-22T12:55:48;30.95;;;6.72;;
55728;SDS011;41633;39.720;2.910;2022-10-22T12:58:15;29.02;;;6.43;;
55728;SDS011;41633;39.720;2.910;2022-10-22T13:00:43;24.42;;;6.07;;
55728;SDS011;41633;39.720;2.910;2022-10-22T13:03:10;33.33;;;6.72;;
55728;SDS011;41633;39.720;2.910;2022-10-22T13:05:42;28.58;;;6.47;;
55728;SDS011;41633;39.720;2.910;2022-10-22T13:08:09;31.20;;;7.28;;
55728;SDS011;41633;39.720;2.910;2022-10-22T13:10:37;33.08;;;6.80;;
55728;SDS011;41633;39.720;2.910;2022-10-22T13:13:04;27.27;;;6.30;;
55728;SDS011;41633;39.720;2.910;2022-10-22T13:18:19;24.83;;;6.40;;
55728;SDS011;41633;39.720;2.910;2022-10-22T13:25:38;33.65;;;6.55;;
55728;SDS011;41633;39.720;2.910;2022-10-22T13:30:49;36.22;;;6.80;;
55728;SDS011;41633;39.720;2.910;2022-10-22T13:35:51;28.23;;;6.35;;
55728;SDS011;41633;39.720;2.910;2022-10-22T13:38:19;31.75;;;6.85;;
55728;SDS011;41633;39.720;2.910;2022-10-22T13:40:46;34.00;;;7.35;;
55728;SDS011;41633;39.720;2.910;2022-10-22T13:43:12;25.35;;;5.68;;
55728;SDS011;41633;39.720;2.910;2022-10-22T13:45:38;28.55;;;6.95;;
55728;SDS011;41633;39.720;2.910;2022-10-22T13:48:05;31.23;;;6.95;;
55728;SDS011;41633;39.720;2.910;2022-10-22T13:50:31;31.02;;;7.40;;
55728;SDS011;41633;39.720;2.910;2022-10-22T13:52:57;32.65;;;7.80;;
55728;SDS011;41633;39.720;2.910;2022-10-22T13:55:28;31.35;;;7.07;;
55728;SDS011;41633;39.720;2.910;2022-10-22T14:00:26;36.53;;;7.07;;
55728;SDS011;41633;39.720;2.910;2022-10-22T14:02:53;36.85;;;7.18;;
55728;SDS011;41633;39.720;2.910;2022-10-22T14:05:20;28.75;;;7.35;;
55728;SDS011;41633;39.720;2.910;2022-10-22T14:07:46;34.95;;;7.30;;
55728;SDS011;41633;39.720;2.910;2022-10-22T14:10:22;26.67;;;6.25;;
55728;SDS011;41633;39.720;2.910;2022-10-22T14:12:49;29.38;;;6.78;;
55728;SDS011;41633;39.720;2.910;2022-10-22T14:15:16;29.23;;;6.40;;
55728;SDS011;41633;39.720;2.910;2022-10-22T14:17:43;28.90;;;7.15;;
55728;SDS011;41633;39.720;2.910;2022-10-22T14:20:14;33.03;;;7.65;;
55728;SDS011;41633;39.720;2.910;2022-10-22T14:22:43;30.00;;;6.60;;
55728;SDS011;41633;39.720;2.910;2022-10-22T14:25:11;26.20;;;6.43;;
55728;SDS011;41633;39.720;2.910;2022-10-22T14:27:38;29.73;;;7.10;;
55728;SDS011;41633;39.720;2.910;2022-10-22T14:30:04;25.95;;;6.63;;
55728;SDS011;41633;39.720;2.910;2022-10-22T14:32:30;27.40;;;7.40;;
55728;SDS011;41633;39.720;2.910;2022-10-22T14:34:56;29.52;;;6.45;;
55728;SDS011;41633;39.720;2.910;2022-10-22T14:37:24;31.58;;;6.70;;
55728;SDS011;41633;39.720;2.910;2022-10-22T14:39:50;32.88;;;8.20;;
55728;SDS011;41633;39.720;2.910;2022-10-22T14:42:24;27.67;;;7.22;;
55728;SDS011;41633;39.720;2.910;2022-10-22T14:44:50;28.85;;;7.65;;
55728;SDS011;41633;39.720;2.910;2022-10-22T14:47:16;31.13;;;7.70;;
55728;SDS011;41633;39.720;2.910;2022-10-22T14:49:42;37.15;;;7.30;;
55728;SDS011;41633;39.720;2.910;2022-10-22T14:52:08;31.85;;;6.32;;
55728;SDS011;41633;39.720;2.910;2022-10-22T14:54:35;29.20;;;6.72;;
55728;SDS011;41633;39.720;2.910;2022-10-22T14:57:01;31.13;;;7.28;;
55728;SDS011;41633;39.720;2.910;2022-10-22T14:59:28;29.05;;;7.18;;
55728;SDS011;41633;39.720;2.910;2022-10-22T15:01:54;31.17;;;8.75;;
55728;SDS011;41633;39.720;2.910;2022-10-22T15:04:20;36.03;;;10.30;;
55728;SDS011;41633;39.720;2.910;2022-10-22T15:06:46;30.30;;;9.57;;
55728;SDS011;41633;39.720;2.910;2022-10-22T15:09:12;39.03;;;10.65;;
55728;SDS011;41633;39.720;2.910;2022-10-22T15:11:39;41.10;;;9.38;;
55728;SDS011;41633;39.720;2.910;2022-10-22T15:14:06;36.33;;;10.82;;
55728;SDS011;41633;39.720;2.910;2022-10-22T15:16:33;32.15;;;9.90;;
55728;SDS011;41633;39.720;2.910;2022-10-22T15:18:59;34.75;;;9.10;;
55728;SDS011;41633;39.720;2.910;2022-10-22T15:21:25;32.90;;;9.05;;
55728;SDS011;41633;39.720;2.910;2022-10-22T15:23:51;31.42;;;10.52;;
55728;SDS011;41633;39.720;2.910;2022-10-22T15:26:17;32.17;;;9.15;;
55728;SDS011;41633;39.720;2.910;2022-10-22T15:28:43;39.40;;;9.65;;
55728;SDS011;41633;39.720;2.910;2022-10-22T15:31:11;30.05;;;9.20;;
55728;SDS011;41633;39.720;2.910;2022-10-22T15:33:37;30.73;;;8.55;;
55728;SDS011;41633;39.720;2.910;2022-10-22T15:36:10;32.38;;;9.10;;
55728;SDS011;41633;39.720;2.910;2022-10-22T15:38:37;34.80;;;8.80;;
55728;SDS011;41633;39.720;2.910;2022-10-22T15:41:03;34.63;;;8.68;;
55728;SDS011;41633;39.720;2.910;2022-10-22T15:43:30;29.02;;;8.25;;
55728;SDS011;41633;39.720;2.910;2022-10-22T15:46:15;30.13;;;8.45;;
55728;SDS011;41633;39.720;2.910;2022-10-22T15:48:42;37.38;;;10.02;;
55728;SDS011;41633;39.720;2.910;2022-10-22T15:51:15;35.13;;;9.70;;
55728;SDS011;41633;39.720;2.910;2022-10-22T15:53:42;39.75;;;9.40;;
55728;SDS011;41633;39.720;2.910;2022-10-22T15:56:09;38.38;;;8.88;;
55728;SDS011;41633;39.720;2.910;2022-10-22T15:58:38;34.13;;;9.80;;
55728;SDS011;41633;39.720;2.910;2022-10-22T16:01:09;34.05;;;9.00;;
55728;SDS011;41633;39.720;2.910;2022-10-22T16:03:35;27.52;;;8.73;;
55728;SDS011;41633;39.720;2.910;2022-10-22T16:06:01;34.40;;;8.68;;
55728;SDS011;41633;39.720;2.910;2022-10-22T16:08:28;34.38;;;10.02;;
55728;SDS011;41633;39.720;2.910;2022-10-22T16:10:54;34.40;;;10.00;;
55728;SDS011;41633;39.720;2.910;2022-10-22T16:13:21;32.25;;;11.65;;
55728;SDS011;41633;39.720;2.910;2022-10-22T16:15:49;35.05;;;11.50;;
55728;SDS011;41633;39.720;2.910;2022-10-22T16:18:15;38.42;;;10.02;;
55728;SDS011;41633;39.720;2.910;2022-10-22T16:20:41;32.17;;;9.07;;
55728;SDS011;41633;39.720;2.910;2022-10-22T16:23:07;38.95;;;8.55;;
55728;SDS011;41633;39.720;2.910;2022-10-22T16:25:37;26.77;;;7.25;;
55728;SDS011;41633;39.720;2.910;2022-10-22T16:28:03;29.50;;;6.78;;
55728;SDS011;41633;39.720;2.910;2022-10-22T16:30:31;32.38;;;8.20;;
55728;SDS011;41633;39.720;2.910;2022-10-22T16:32:58;35.58;;;8.07;;
55728;SDS011;41633;39.720;2.910;2022-10-22T16:35:24;37.10;;;8.65;;
55728;SDS011;41633;39.720;2.910;2022-10-22T16:37:50;36.70;;;8.20;;
55728;SDS011;41633;39.720;2.910;2022-10-22T16:40:16;37.33;;;8.27;;
55728;SDS011;41633;39.720;2.910;2022-10-22T16:42:42;28.17;;;6.90;;
55728;SDS011;41633;39.720;2.910;2022-10-22T16:45:09;32.22;;;7.63;;
55728;SDS011;41633;39.720;2.910;2022-10-22T16:47:35;30.67;;;7.43;;
55728;SDS011;41633;39.720;2.910;2022-10-22T16:50:01;29.45;;;7.70;;
55728;SDS011;41633;39.720;2.910;2022-10-22T16:52:27;35.83;;;8.60;;
55728;SDS011;41633;39.720;2.910;2022-10-22T16:54:53;32.35;;;7.88;;
55728;SDS011;41633;39.720;2.910;2022-10-22T16:57:20;37.53;;;9.15;;
55728;SDS011;41633;39.720;2.910;2022-10-22T16:59:46;38.67;;;8.73;;
55728;SDS011;41633;39.720;2.910;2022-10-22T17:02:12;40.22;;;9.52;;
55728;SDS011;41633;39.720;2.910;2022-10-22T17:04:38;37.72;;;9.23;;
55728;SDS011;41633;39.720;2.910;2022-10-22T17:07:04;30.77;;;9.82;;
55728;SDS011;41633;39.720;2.910;2022-10-22T17:09:31;39.88;;;9.75;;
55728;SDS011;41633;39.720;2.910;2022-10-22T17:11:57;49.40;;;10.52;;
55728;SDS011;41633;39.720;2.910;2022-10-22T17:14:23;35.15;;;10.02;;
55728;SDS011;41633;39.720;2.910;2022-10-22T17:16:49;37.95;;;10.07;;
55728;SDS011;41633;39.720;2.910;2022-10-22T17:19:21;32.28;;;9.48;;
55728;SDS011;41633;39.720;2.910;2022-10-22T17:21:48;31.77;;;8.85;;
55728;SDS011;41633;39.720;2.910;2022-10-22T17:24:15;35.95;;;9.65;;
55728;SDS011;41633;39.720;2.910;2022-10-22T17:26:41;39.78;;;10.90;;
55728;SDS011;41633;39.720;2.910;2022-10-22T17:29:09;37.60;;;11.20;;
55728;SDS011;41633;39.720;2.910;2022-10-22T17:31:35;34.45;;;10.30;;
55728;SDS011;41633;39.720;2.910;2022-10-22T17:34:03;39.22;;;10.43;;
55728;SDS011;41633;39.720;2.910;2022-10-22T17:36:29;39.05;;;10.95;;
55728;SDS011;41633;39.720;2.910;2022-10-22T17:38:57;38.85;;;11.85;;
55728;SDS011;41633;39.720;2.910;2022-10-22T17:41:26;45.28;;;12.68;;
55728;SDS011;41633;39.720;2.910;2022-10-22T17:43:53;37.00;;;11.50;;
55728;SDS011;41633;39.720;2.910;2022-10-22T17:46:24;43.25;;;12.73;;
55728;SDS011;41633;39.720;2.910;2022-10-22T17:48:51;46.70;;;12.63;;
55728;SDS011;41633;39.720;2.910;2022-10-22T17:51:17;44.83;;;12.77;;
55728;SDS011;41633;39.720;2.910;2022-10-22T17:53:44;42.88;;;12.10;;
55728;SDS011;41633;39.720;2.910;2022-10-22T17:56:11;35.22;;;12.18;;
55728;SDS011;41633;39.720;2.910;2022-10-22T17:58:38;41.42;;;12.60;;
55728;SDS011;41633;39.720;2.910;2022-10-22T18:01:04;42.88;;;13.15;;
55728;SDS011;41633;39.720;2.910;2022-10-22T18:03:31;44.63;;;13.30;;
55728;SDS011;41633;39.720;2.910;2022-10-22T18:06:06;41.97;;;12.80;;
55728;SDS011;41633;39.720;2.910;2022-10-22T18:11:03;35.92;;;12.82;;
55728;SDS011;41633;39.720;2.910;2022-10-22T18:13:29;34.08;;;12.98;;
55728;SDS011;41633;39.720;2.910;2022-10-22T18:15:55;39.60;;;13.43;;
55728;SDS011;41633;39.720;2.910;2022-10-22T18:18:22;46.83;;;16.13;;
55728;SDS011;41633;39.720;2.910;2022-10-22T18:20:48;40.75;;;16.25;;
55728;SDS011;41633;39.720;2.910;2022-10-22T18:23:15;50.25;;;19.15;;
55728;SDS011;41633;39.720;2.910;2022-10-22T18:25:41;53.13;;;20.92;;
55728;SDS011;41633;39.720;2.910;2022-10-22T18:28:07;53.30;;;22.83;;
55728;SDS011;41633;39.720;2.910;2022-10-22T18:30:33;49.95;;;22.42;;